LYBE/BEG METAR and TAF weather

Enter ICAO airport designator
Station Type Date Time Source
LYBE METAR 2020/12/01 21:00 UTC NOAA

LYBE 012100Z 10012KT CAVOK M00/M03 Q1021 NOSIG


Station Type Date Time Source
LYBE Decoded METAR 2020/12/01 21:00 UTC NOAA

Beograd / Surcin, Serbia and Montenegro (LYBE) 44-49N 020-17E 99M
Dec 01, 2020 - 04:00 PM EST / 2020.12.01 2100 UTC
Wind: from the E (100 degrees) at 14 MPH (12 KT):0
Visibility: greater than 7 mile(s):0
Temperature: 32 F (0 C)
Windchill: 21 F (-6 C):1
Dew Point: 26 F (-3 C)
Relative Humidity: 80%
Pressure (altimeter): 30.15 in. Hg (1021 hPa)
ob: LYBE 012100Z 10012KT CAVOK M00/M03 Q1021 NOSIG
cycle: 21

Station Type Date Time Source
LYBE TAF 2020/12/01 18:21 UTC NOAA

TAF TAF LYBE 011700Z 0118/0218 10008KT CAVOK TX04/0213Z TNM02/0205Z
TEMPO 0202/0207 3000 BR
BECMG 0211/0213 12015G25KT

Example: see airport list